sensor_id;sensor_type;location;lat;lon;timestamp;P1;durP1;ratioP1;P2;durP2;ratioP2
50821;SDS011;36794;51.212;6.980;2023-04-06T00:01:00;15.57;;;10.30;;
50821;SDS011;36794;51.212;6.980;2023-04-06T00:03:26;19.50;;;10.30;;
50821;SDS011;36794;51.212;6.980;2023-04-06T00:05:52;22.20;;;11.50;;
50821;SDS011;36794;51.212;6.980;2023-04-06T00:08:18;17.87;;;11.03;;
50821;SDS011;36794;51.212;6.980;2023-04-06T00:10:46;21.03;;;11.90;;
50821;SDS011;36794;51.212;6.980;2023-04-06T00:13:12;21.00;;;10.93;;
50821;SDS011;36794;51.212;6.980;2023-04-06T00:15:38;18.20;;;11.50;;
50821;SDS011;36794;51.212;6.980;2023-04-06T00:18:04;18.70;;;11.03;;
50821;SDS011;36794;51.212;6.980;2023-04-06T00:20:30;17.33;;;10.40;;
50821;SDS011;36794;51.212;6.980;2023-04-06T00:22:56;20.60;;;11.43;;
50821;SDS011;36794;51.212;6.980;2023-04-06T00:25:22;18.87;;;11.23;;
50821;SDS011;36794;51.212;6.980;2023-04-06T00:27:48;18.97;;;11.03;;
50821;SDS011;36794;51.212;6.980;2023-04-06T00:30:15;22.53;;;11.00;;
50821;SDS011;36794;51.212;6.980;2023-04-06T00:32:41;19.60;;;11.10;;
50821;SDS011;36794;51.212;6.980;2023-04-06T00:35:07;18.10;;;11.10;;
50821;SDS011;36794;51.212;6.980;2023-04-06T00:37:33;20.63;;;11.80;;
50821;SDS011;36794;51.212;6.980;2023-04-06T00:39:59;20.23;;;11.40;;
50821;SDS011;36794;51.212;6.980;2023-04-06T00:42:25;18.53;;;11.60;;
50821;SDS011;36794;51.212;6.980;2023-04-06T00:44:54;18.90;;;10.90;;
50821;SDS011;36794;51.212;6.980;2023-04-06T00:47:21;18.43;;;10.77;;
50821;SDS011;36794;51.212;6.980;2023-04-06T00:49:47;18.67;;;11.00;;
50821;SDS011;36794;51.212;6.980;2023-04-06T00:52:13;18.90;;;11.77;;
50821;SDS011;36794;51.212;6.980;2023-04-06T00:54:39;22.80;;;12.60;;
50821;SDS011;36794;51.212;6.980;2023-04-06T00:57:05;19.33;;;10.97;;
50821;SDS011;36794;51.212;6.980;2023-04-06T00:59:31;20.27;;;11.63;;
50821;SDS011;36794;51.212;6.980;2023-04-06T01:01:57;20.37;;;11.73;;
50821;SDS011;36794;51.212;6.980;2023-04-06T01:04:24;19.57;;;11.47;;
50821;SDS011;36794;51.212;6.980;2023-04-06T01:06:50;18.77;;;10.80;;
50821;SDS011;36794;51.212;6.980;2023-04-06T01:09:16;20.23;;;10.40;;
50821;SDS011;36794;51.212;6.980;2023-04-06T01:11:42;18.30;;;10.27;;
50821;SDS011;36794;51.212;6.980;2023-04-06T01:14:08;17.20;;;11.40;;
50821;SDS011;36794;51.212;6.980;2023-04-06T01:16:35;16.63;;;10.97;;
50821;SDS011;36794;51.212;6.980;2023-04-06T01:19:01;19.77;;;11.27;;
50821;SDS011;36794;51.212;6.980;2023-04-06T01:21:27;18.77;;;10.73;;
50821;SDS011;36794;51.212;6.980;2023-04-06T01:23:53;21.60;;;11.17;;
50821;SDS011;36794;51.212;6.980;2023-04-06T01:26:19;20.00;;;11.87;;
50821;SDS011;36794;51.212;6.980;2023-04-06T01:28:45;18.00;;;10.63;;
50821;SDS011;36794;51.212;6.980;2023-04-06T01:31:11;20.93;;;11.23;;
50821;SDS011;36794;51.212;6.980;2023-04-06T01:33:37;19.93;;;10.93;;
50821;SDS011;36794;51.212;6.980;2023-04-06T01:36:03;16.50;;;10.60;;
50821;SDS011;36794;51.212;6.980;2023-04-06T01:38:30;19.93;;;11.90;;
50821;SDS011;36794;51.212;6.980;2023-04-06T01:40:56;17.73;;;10.93;;
50821;SDS011;36794;51.212;6.980;2023-04-06T01:43:22;19.17;;;10.50;;
50821;SDS011;36794;51.212;6.980;2023-04-06T01:45:48;17.70;;;10.63;;
50821;SDS011;36794;51.212;6.980;2023-04-06T01:48:14;15.90;;;11.13;;
50821;SDS011;36794;51.212;6.980;2023-04-06T01:50:40;17.77;;;10.33;;
50821;SDS011;36794;51.212;6.980;2023-04-06T01:53:06;17.87;;;11.00;;
50821;SDS011;36794;51.212;6.980;2023-04-06T01:55:32;15.17;;;10.83;;
50821;SDS011;36794;51.212;6.980;2023-04-06T01:57:58;18.87;;;11.27;;
50821;SDS011;36794;51.212;6.980;2023-04-06T02:00:24;16.07;;;10.07;;
50821;SDS011;36794;51.212;6.980;2023-04-06T02:02:50;19.43;;;11.70;;
50821;SDS011;36794;51.212;6.980;2023-04-06T02:05:16;16.83;;;11.33;;
50821;SDS011;36794;51.212;6.980;2023-04-06T02:07:42;17.33;;;11.07;;
50821;SDS011;36794;51.212;6.980;2023-04-06T02:10:12;19.37;;;10.57;;
50821;SDS011;36794;51.212;6.980;2023-04-06T02:12:38;19.10;;;11.27;;
50821;SDS011;36794;51.212;6.980;2023-04-06T02:15:04;23.67;;;12.47;;
50821;SDS011;36794;51.212;6.980;2023-04-06T02:17:30;17.80;;;10.77;;
50821;SDS011;36794;51.212;6.980;2023-04-06T02:19:56;16.90;;;11.17;;
50821;SDS011;36794;51.212;6.980;2023-04-06T02:22:22;22.63;;;11.83;;
50821;SDS011;36794;51.212;6.980;2023-04-06T02:24:48;17.47;;;11.47;;
50821;SDS011;36794;51.212;6.980;2023-04-06T02:27:14;16.30;;;10.87;;
50821;SDS011;36794;51.212;6.980;2023-04-06T02:29:40;20.80;;;10.73;;
50821;SDS011;36794;51.212;6.980;2023-04-06T02:32:06;21.33;;;11.40;;
50821;SDS011;36794;51.212;6.980;2023-04-06T02:34:33;18.97;;;12.00;;
50821;SDS011;36794;51.212;6.980;2023-04-06T02:36:59;17.93;;;11.93;;
50821;SDS011;36794;51.212;6.980;2023-04-06T02:39:25;18.70;;;11.47;;
50821;SDS011;36794;51.212;6.980;2023-04-06T02:41:51;22.07;;;12.00;;
50821;SDS011;36794;51.212;6.980;2023-04-06T02:44:18;17.07;;;11.77;;
50821;SDS011;36794;51.212;6.980;2023-04-06T02:46:44;19.43;;;11.80;;
50821;SDS011;36794;51.212;6.980;2023-04-06T02:49:10;18.03;;;10.27;;
50821;SDS011;36794;51.212;6.980;2023-04-06T02:51:36;21.60;;;10.70;;
50821;SDS011;36794;51.212;6.980;2023-04-06T02:54:02;16.20;;;10.17;;
50821;SDS011;36794;51.212;6.980;2023-04-06T02:56:28;17.50;;;10.43;;
50821;SDS011;36794;51.212;6.980;2023-04-06T02:58:54;15.07;;;10.33;;
50821;SDS011;36794;51.212;6.980;2023-04-06T03:01:20;17.70;;;11.07;;
50821;SDS011;36794;51.212;6.980;2023-04-06T03:03:46;15.47;;;10.13;;
50821;SDS011;36794;51.212;6.980;2023-04-06T03:06:12;15.07;;;10.20;;
50821;SDS011;36794;51.212;6.980;2023-04-06T03:08:38;18.00;;;10.67;;
50821;SDS011;36794;51.212;6.980;2023-04-06T03:11:04;17.70;;;10.50;;
50821;SDS011;36794;51.212;6.980;2023-04-06T03:13:30;17.80;;;10.20;;
50821;SDS011;36794;51.212;6.980;2023-04-06T03:15:56;18.37;;;10.63;;
50821;SDS011;36794;51.212;6.980;2023-04-06T03:18:23;19.33;;;10.60;;
50821;SDS011;36794;51.212;6.980;2023-04-06T03:20:49;16.87;;;10.17;;
50821;SDS011;36794;51.212;6.980;2023-04-06T03:23:15;17.83;;;11.23;;
50821;SDS011;36794;51.212;6.980;2023-04-06T03:25:41;15.57;;;9.57;;
50821;SDS011;36794;51.212;6.980;2023-04-06T03:28:07;17.17;;;10.23;;
50821;SDS011;36794;51.212;6.980;2023-04-06T03:30:34;13.80;;;10.03;;
50821;SDS011;36794;51.212;6.980;2023-04-06T03:33:00;15.30;;;9.53;;
50821;SDS011;36794;51.212;6.980;2023-04-06T03:35:26;17.17;;;9.57;;
50821;SDS011;36794;51.212;6.980;2023-04-06T03:37:52;15.73;;;9.53;;
50821;SDS011;36794;51.212;6.980;2023-04-06T03:40:18;15.57;;;9.53;;
50821;SDS011;36794;51.212;6.980;2023-04-06T03:42:44;17.27;;;10.17;;
50821;SDS011;36794;51.212;6.980;2023-04-06T03:45:10;17.27;;;9.73;;
50821;SDS011;36794;51.212;6.980;2023-04-06T03:47:37;16.77;;;9.60;;
50821;SDS011;36794;51.212;6.980;2023-04-06T03:50:03;17.23;;;9.67;;
50821;SDS011;36794;51.212;6.980;2023-04-06T03:52:30;17.10;;;10.33;;
50821;SDS011;36794;51.212;6.980;2023-04-06T03:54:56;18.03;;;10.33;;
50821;SDS011;36794;51.212;6.980;2023-04-06T03:57:21;18.80;;;9.40;;
50821;SDS011;36794;51.212;6.980;2023-04-06T03:59:47;14.47;;;9.63;;
50821;SDS011;36794;51.212;6.980;2023-04-06T04:02:13;15.23;;;8.90;;
50821;SDS011;36794;51.212;6.980;2023-04-06T04:04:40;13.73;;;9.57;;
50821;SDS011;36794;51.212;6.980;2023-04-06T04:07:06;16.53;;;9.60;;
50821;SDS011;36794;51.212;6.980;2023-04-06T04:09:32;15.43;;;9.40;;
50821;SDS011;36794;51.212;6.980;2023-04-06T04:11:58;14.10;;;10.13;;
50821;SDS011;36794;51.212;6.980;2023-04-06T04:14:23;14.40;;;9.83;;
50821;SDS011;36794;51.212;6.980;2023-04-06T04:16:50;13.87;;;9.50;;
50821;SDS011;36794;51.212;6.980;2023-04-06T04:19:16;18.13;;;9.50;;
50821;SDS011;36794;51.212;6.980;2023-04-06T04:21:43;14.50;;;9.27;;
50821;SDS011;36794;51.212;6.980;2023-04-06T04:24:09;13.83;;;9.97;;
50821;SDS011;36794;51.212;6.980;2023-04-06T04:26:36;14.63;;;9.10;;
50821;SDS011;36794;51.212;6.980;2023-04-06T04:29:02;13.80;;;9.83;;
50821;SDS011;36794;51.212;6.980;2023-04-06T04:31:28;14.90;;;9.73;;
50821;SDS011;36794;51.212;6.980;2023-04-06T04:33:53;15.70;;;9.13;;
50821;SDS011;36794;51.212;6.980;2023-04-06T04:36:20;18.30;;;9.40;;
50821;SDS011;36794;51.212;6.980;2023-04-06T04:38:46;17.53;;;10.27;;
50821;SDS011;36794;51.212;6.980;2023-04-06T04:41:12;15.40;;;9.33;;
50821;SDS011;36794;51.212;6.980;2023-04-06T04:43:37;16.10;;;9.80;;
50821;SDS011;36794;51.212;6.980;2023-04-06T04:46:04;17.13;;;10.70;;
50821;SDS011;36794;51.212;6.980;2023-04-06T04:48:30;18.93;;;9.60;;
50821;SDS011;36794;51.212;6.980;2023-04-06T04:50:56;15.53;;;9.80;;
50821;SDS011;36794;51.212;6.980;2023-04-06T04:53:22;14.83;;;9.00;;
50821;SDS011;36794;51.212;6.980;2023-04-06T04:55:48;17.23;;;9.80;;
50821;SDS011;36794;51.212;6.980;2023-04-06T04:58:14;18.17;;;9.73;;
50821;SDS011;36794;51.212;6.980;2023-04-06T05:00:42;17.57;;;9.20;;
50821;SDS011;36794;51.212;6.980;2023-04-06T05:03:08;16.13;;;8.00;;
50821;SDS011;36794;51.212;6.980;2023-04-06T05:05:34;13.20;;;8.20;;
50821;SDS011;36794;51.212;6.980;2023-04-06T05:08:00;13.90;;;7.13;;
50821;SDS011;36794;51.212;6.980;2023-04-06T05:10:26;14.67;;;7.20;;
50821;SDS011;36794;51.212;6.980;2023-04-06T05:12:52;12.70;;;6.83;;
50821;SDS011;36794;51.212;6.980;2023-04-06T05:15:18;12.00;;;7.03;;
50821;SDS011;36794;51.212;6.980;2023-04-06T05:17:44;12.83;;;6.93;;
50821;SDS011;36794;51.212;6.980;2023-04-06T05:20:10;12.03;;;6.67;;
50821;SDS011;36794;51.212;6.980;2023-04-06T05:22:36;12.63;;;6.23;;
50821;SDS011;36794;51.212;6.980;2023-04-06T05:25:02;14.30;;;6.43;;
50821;SDS011;36794;51.212;6.980;2023-04-06T05:27:28;19.37;;;6.27;;
50821;SDS011;36794;51.212;6.980;2023-04-06T05:29:55;14.70;;;6.60;;
50821;SDS011;36794;51.212;6.980;2023-04-06T05:32:21;13.60;;;6.30;;
50821;SDS011;36794;51.212;6.980;2023-04-06T05:34:48;16.73;;;6.63;;
50821;SDS011;36794;51.212;6.980;2023-04-06T05:37:15;11.10;;;6.30;;
50821;SDS011;36794;51.212;6.980;2023-04-06T05:39:41;12.47;;;6.40;;
50821;SDS011;36794;51.212;6.980;2023-04-06T05:42:07;12.10;;;6.60;;
50821;SDS011;36794;51.212;6.980;2023-04-06T05:44:33;11.70;;;6.63;;
50821;SDS011;36794;51.212;6.980;2023-04-06T05:46:59;14.03;;;6.67;;
50821;SDS011;36794;51.212;6.980;2023-04-06T05:49:25;11.40;;;6.27;;
50821;SDS011;36794;51.212;6.980;2023-04-06T05:51:51;10.20;;;6.37;;
50821;SDS011;36794;51.212;6.980;2023-04-06T05:54:17;10.80;;;6.50;;
50821;SDS011;36794;51.212;6.980;2023-04-06T05:56:43;10.37;;;6.30;;
50821;SDS011;36794;51.212;6.980;2023-04-06T05:59:09;9.73;;;6.03;;
50821;SDS011;36794;51.212;6.980;2023-04-06T06:01:35;16.33;;;6.37;;
50821;SDS011;36794;51.212;6.980;2023-04-06T06:04:01;9.37;;;5.83;;
50821;SDS011;36794;51.212;6.980;2023-04-06T06:06:27;12.67;;;6.80;;
50821;SDS011;36794;51.212;6.980;2023-04-06T06:08:55;11.27;;;5.80;;
50821;SDS011;36794;51.212;6.980;2023-04-06T06:11:24;13.10;;;6.93;;
50821;SDS011;36794;51.212;6.980;2023-04-06T06:13:50;12.53;;;6.03;;
50821;SDS011;36794;51.212;6.980;2023-04-06T06:16:16;10.63;;;6.33;;
50821;SDS011;36794;51.212;6.980;2023-04-06T06:18:42;10.23;;;5.73;;
50821;SDS011;36794;51.212;6.980;2023-04-06T06:21:08;9.27;;;5.20;;
50821;SDS011;36794;51.212;6.980;2023-04-06T06:23:36;13.07;;;6.07;;
50821;SDS011;36794;51.212;6.980;2023-04-06T06:26:02;12.00;;;5.70;;
50821;SDS011;36794;51.212;6.980;2023-04-06T06:28:29;10.20;;;5.60;;
50821;SDS011;36794;51.212;6.980;2023-04-06T06:30:55;10.40;;;6.20;;
50821;SDS011;36794;51.212;6.980;2023-04-06T06:33:21;11.40;;;6.63;;
50821;SDS011;36794;51.212;6.980;2023-04-06T06:35:47;10.67;;;5.90;;
50821;SDS011;36794;51.212;6.980;2023-04-06T06:38:13;8.67;;;6.07;;
50821;SDS011;36794;51.212;6.980;2023-04-06T06:40:40;11.13;;;5.67;;
50821;SDS011;36794;51.212;6.980;2023-04-06T06:43:06;9.57;;;5.60;;
50821;SDS011;36794;51.212;6.980;2023-04-06T06:45:32;8.07;;;5.47;;
50821;SDS011;36794;51.212;6.980;2023-04-06T06:47:58;10.07;;;6.27;;
50821;SDS011;36794;51.212;6.980;2023-04-06T06:50:25;10.33;;;6.10;;
50821;SDS011;36794;51.212;6.980;2023-04-06T06:52:51;10.10;;;5.83;;
50821;SDS011;36794;51.212;6.980;2023-04-06T06:55:17;8.83;;;6.17;;
50821;SDS011;36794;51.212;6.980;2023-04-06T06:57:44;10.33;;;6.40;;
50821;SDS011;36794;51.212;6.980;2023-04-06T07:00:11;8.77;;;5.90;;
50821;SDS011;36794;51.212;6.980;2023-04-06T07:02:38;14.60;;;5.97;;
50821;SDS011;36794;51.212;6.980;2023-04-06T07:05:04;10.20;;;6.03;;
50821;SDS011;36794;51.212;6.980;2023-04-06T07:07:34;9.67;;;6.13;;
50821;SDS011;36794;51.212;6.980;2023-04-06T07:10:00;9.53;;;5.93;;
50821;SDS011;36794;51.212;6.980;2023-04-06T07:12:26;9.37;;;5.80;;
50821;SDS011;36794;51.212;6.980;2023-04-06T07:14:52;10.13;;;5.80;;
50821;SDS011;36794;51.212;6.980;2023-04-06T07:17:18;9.13;;;5.50;;
50821;SDS011;36794;51.212;6.980;2023-04-06T07:19:44;13.30;;;6.10;;
50821;SDS011;36794;51.212;6.980;2023-04-06T07:22:11;11.20;;;6.00;;
50821;SDS011;36794;51.212;6.980;2023-04-06T07:24:37;8.80;;;5.83;;
50821;SDS011;36794;51.212;6.980;2023-04-06T07:27:03;9.83;;;6.00;;
50821;SDS011;36794;51.212;6.980;2023-04-06T07:29:29;10.80;;;6.10;;
50821;SDS011;36794;51.212;6.980;2023-04-06T07:31:55;12.10;;;6.17;;
50821;SDS011;36794;51.212;6.980;2023-04-06T07:34:21;11.17;;;6.03;;
50821;SDS011;36794;51.212;6.980;2023-04-06T07:36:47;11.73;;;5.87;;
50821;SDS011;36794;51.212;6.980;2023-04-06T07:39:13;9.07;;;6.13;;
50821;SDS011;36794;51.212;6.980;2023-04-06T07:41:39;9.73;;;5.60;;
50821;SDS011;36794;51.212;6.980;2023-04-06T07:44:05;11.27;;;6.47;;
50821;SDS011;36794;51.212;6.980;2023-04-06T07:46:31;11.13;;;6.60;;
50821;SDS011;36794;51.212;6.980;2023-04-06T07:48:58;10.17;;;6.10;;
50821;SDS011;36794;51.212;6.980;2023-04-06T07:51:25;10.90;;;5.90;;
50821;SDS011;36794;51.212;6.980;2023-04-06T07:53:51;12.33;;;7.03;;
50821;SDS011;36794;51.212;6.980;2023-04-06T07:56:18;13.50;;;6.07;;
50821;SDS011;36794;51.212;6.980;2023-04-06T07:58:44;10.57;;;6.30;;
50821;SDS011;36794;51.212;6.980;2023-04-06T08:01:10;11.93;;;6.53;;
50821;SDS011;36794;51.212;6.980;2023-04-06T08:03:36;10.87;;;6.40;;
50821;SDS011;36794;51.212;6.980;2023-04-06T08:06:02;11.57;;;6.67;;
50821;SDS011;36794;51.212;6.980;2023-04-06T08:08:28;10.43;;;6.77;;
50821;SDS011;36794;51.212;6.980;2023-04-06T08:10:55;11.40;;;6.33;;
50821;SDS011;36794;51.212;6.980;2023-04-06T08:13:21;10.77;;;6.67;;
50821;SDS011;36794;51.212;6.980;2023-04-06T08:15:47;9.40;;;6.00;;
50821;SDS011;36794;51.212;6.980;2023-04-06T08:18:13;10.83;;;6.83;;
50821;SDS011;36794;51.212;6.980;2023-04-06T08:20:40;14.37;;;7.80;;
50821;SDS011;36794;51.212;6.980;2023-04-06T08:23:06;10.53;;;7.37;;
50821;SDS011;36794;51.212;6.980;2023-04-06T08:25:34;12.13;;;7.37;;
50821;SDS011;36794;51.212;6.980;2023-04-06T08:28:01;14.93;;;7.07;;
50821;SDS011;36794;51.212;6.980;2023-04-06T08:30:27;12.93;;;6.93;;
50821;SDS011;36794;51.212;6.980;2023-04-06T08:32:53;14.43;;;6.90;;
50821;SDS011;36794;51.212;6.980;2023-04-06T08:35:19;11.90;;;7.07;;
50821;SDS011;36794;51.212;6.980;2023-04-06T08:37:45;14.83;;;7.27;;
50821;SDS011;36794;51.212;6.980;2023-04-06T08:40:11;12.20;;;7.40;;
50821;SDS011;36794;51.212;6.980;2023-04-06T08:42:47;11.37;;;7.27;;
50821;SDS011;36794;51.212;6.980;2023-04-06T08:45:15;14.70;;;7.33;;
50821;SDS011;36794;51.212;6.980;2023-04-06T08:47:43;13.67;;;7.67;;
50821;SDS011;36794;51.212;6.980;2023-04-06T08:50:09;13.33;;;7.00;;
50821;SDS011;36794;51.212;6.980;2023-04-06T08:52:36;23.00;;;7.80;;
50821;SDS011;36794;51.212;6.980;2023-04-06T08:55:02;13.63;;;7.70;;
50821;SDS011;36794;51.212;6.980;2023-04-06T08:57:28;18.40;;;7.47;;
50821;SDS011;36794;51.212;6.980;2023-04-06T08:59:54;15.10;;;7.93;;
50821;SDS011;36794;51.212;6.980;2023-04-06T09:02:21;14.60;;;8.47;;
50821;SDS011;36794;51.212;6.980;2023-04-06T09:04:49;12.40;;;8.00;;
50821;SDS011;36794;51.212;6.980;2023-04-06T09:07:17;18.67;;;8.67;;
50821;SDS011;36794;51.212;6.980;2023-04-06T09:09:44;18.17;;;8.60;;
50821;SDS011;36794;51.212;6.980;2023-04-06T09:15:17;15.57;;;9.20;;
50821;SDS011;36794;51.212;6.980;2023-04-06T09:17:43;16.53;;;9.20;;
50821;SDS011;36794;51.212;6.980;2023-04-06T09:20:10;19.80;;;11.00;;
50821;SDS011;36794;51.212;6.980;2023-04-06T09:22:37;18.13;;;9.87;;
50821;SDS011;36794;51.212;6.980;2023-04-06T09:25:03;16.57;;;9.37;;
50821;SDS011;36794;51.212;6.980;2023-04-06T09:27:30;19.27;;;9.53;;
50821;SDS011;36794;51.212;6.980;2023-04-06T09:30:06;17.03;;;9.00;;
50821;SDS011;36794;51.212;6.980;2023-04-06T09:32:43;16.97;;;10.23;;
50821;SDS011;36794;51.212;6.980;2023-04-06T09:35:10;21.67;;;11.03;;
50821;SDS011;36794;51.212;6.980;2023-04-06T09:37:36;17.77;;;10.30;;
50821;SDS011;36794;51.212;6.980;2023-04-06T09:40:03;14.97;;;9.40;;
50821;SDS011;36794;51.212;6.980;2023-04-06T09:42:30;17.83;;;10.50;;
50821;SDS011;36794;51.212;6.980;2023-04-06T09:44:56;18.17;;;11.00;;
50821;SDS011;36794;51.212;6.980;2023-04-06T09:47:22;16.73;;;10.80;;
50821;SDS011;36794;51.212;6.980;2023-04-06T09:49:49;18.97;;;11.53;;
50821;SDS011;36794;51.212;6.980;2023-04-06T09:52:15;22.53;;;11.87;;
50821;SDS011;36794;51.212;6.980;2023-04-06T09:54:42;23.60;;;11.77;;
50821;SDS011;36794;51.212;6.980;2023-04-06T09:59:52;18.10;;;10.77;;
50821;SDS011;36794;51.212;6.980;2023-04-06T10:07:15;22.83;;;11.17;;
50821;SDS011;36794;51.212;6.980;2023-04-06T10:09:42;17.77;;;10.63;;
50821;SDS011;36794;51.212;6.980;2023-04-06T10:12:10;17.87;;;11.00;;
50821;SDS011;36794;51.212;6.980;2023-04-06T10:14:36;19.60;;;10.47;;
50821;SDS011;36794;51.212;6.980;2023-04-06T10:17:03;15.87;;;10.63;;
50821;SDS011;36794;51.212;6.980;2023-04-06T10:19:39;19.70;;;10.70;;
50821;SDS011;36794;51.212;6.980;2023-04-06T10:22:07;17.90;;;10.43;;
50821;SDS011;36794;51.212;6.980;2023-04-06T10:24:35;20.20;;;10.53;;
50821;SDS011;36794;51.212;6.980;2023-04-06T10:27:01;15.83;;;10.33;;
50821;SDS011;36794;51.212;6.980;2023-04-06T10:29:27;16.70;;;10.47;;
50821;SDS011;36794;51.212;6.980;2023-04-06T10:31:53;18.08;;;10.77;;
50821;SDS011;36794;51.212;6.980;2023-04-06T10:34:20;18.52;;;10.85;;
50821;SDS011;36794;51.212;6.980;2023-04-06T10:36:46;17.45;;;10.57;;
50821;SDS011;36794;51.212;6.980;2023-04-06T10:39:12;15.77;;;9.90;;
50821;SDS011;36794;51.212;6.980;2023-04-06T10:41:44;18.85;;;10.30;;
50821;SDS011;36794;51.212;6.980;2023-04-06T10:44:22;19.45;;;10.20;;
50821;SDS011;36794;51.212;6.980;2023-04-06T10:46:55;16.40;;;10.55;;
50821;SDS011;36794;51.212;6.980;2023-04-06T10:49:21;17.33;;;10.80;;
50821;SDS011;36794;51.212;6.980;2023-04-06T10:51:50;21.07;;;10.63;;
50821;SDS011;36794;51.212;6.980;2023-04-06T10:54:17;18.50;;;11.10;;
50821;SDS011;36794;51.212;6.980;2023-04-06T10:56:44;16.87;;;10.37;;
50821;SDS011;36794;51.212;6.980;2023-04-06T10:59:10;16.90;;;10.17;;
50821;SDS011;36794;51.212;6.980;2023-04-06T11:01:36;19.00;;;10.87;;
50821;SDS011;36794;51.212;6.980;2023-04-06T11:04:02;18.07;;;10.83;;
50821;SDS011;36794;51.212;6.980;2023-04-06T11:06:29;18.90;;;11.70;;
50821;SDS011;36794;51.212;6.980;2023-04-06T11:08:56;20.20;;;11.67;;
50821;SDS011;36794;51.212;6.980;2023-04-06T11:11:23;21.00;;;11.83;;
50821;SDS011;36794;51.212;6.980;2023-04-06T11:13:57;24.17;;;11.70;;
50821;SDS011;36794;51.212;6.980;2023-04-06T11:16:24;23.50;;;12.37;;
50821;SDS011;36794;51.212;6.980;2023-04-06T11:18:51;23.73;;;11.97;;
50821;SDS011;36794;51.212;6.980;2023-04-06T11:21:18;25.07;;;13.43;;
50821;SDS011;36794;51.212;6.980;2023-04-06T11:23:45;25.57;;;13.03;;
50821;SDS011;36794;51.212;6.980;2023-04-06T11:26:11;23.07;;;12.50;;
50821;SDS011;36794;51.212;6.980;2023-04-06T11:28:38;23.23;;;13.83;;
50821;SDS011;36794;51.212;6.980;2023-04-06T11:31:05;20.27;;;12.57;;
50821;SDS011;36794;51.212;6.980;2023-04-06T11:33:35;21.70;;;12.77;;
50821;SDS011;36794;51.212;6.980;2023-04-06T11:36:01;23.00;;;12.03;;
50821;SDS011;36794;51.212;6.980;2023-04-06T11:38:27;21.93;;;12.63;;
50821;SDS011;36794;51.212;6.980;2023-04-06T11:40:53;21.80;;;12.27;;
50821;SDS011;36794;51.212;6.980;2023-04-06T11:43:25;19.67;;;10.90;;
50821;SDS011;36794;51.212;6.980;2023-04-06T11:45:52;19.90;;;12.75;;
50821;SDS011;36794;51.212;6.980;2023-04-06T11:48:25;24.63;;;13.25;;
50821;SDS011;36794;51.212;6.980;2023-04-06T11:50:55;24.13;;;13.37;;
50821;SDS011;36794;51.212;6.980;2023-04-06T11:53:21;30.85;;;12.80;;
50821;SDS011;36794;51.212;6.980;2023-04-06T11:55:47;21.50;;;12.97;;
50821;SDS011;36794;51.212;6.980;2023-04-06T11:58:13;23.37;;;13.13;;
50821;SDS011;36794;51.212;6.980;2023-04-06T12:00:39;23.73;;;12.70;;
50821;SDS011;36794;51.212;6.980;2023-04-06T12:03:09;19.27;;;11.97;;
50821;SDS011;36794;51.212;6.980;2023-04-06T12:05:35;21.97;;;11.70;;
50821;SDS011;36794;51.212;6.980;2023-04-06T12:08:02;20.57;;;12.73;;
50821;SDS011;36794;51.212;6.980;2023-04-06T12:10:28;19.33;;;12.33;;
50821;SDS011;36794;51.212;6.980;2023-04-06T12:12:54;23.53;;;12.40;;
50821;SDS011;36794;51.212;6.980;2023-04-06T12:15:20;21.40;;;12.43;;
50821;SDS011;36794;51.212;6.980;2023-04-06T12:17:46;18.90;;;11.30;;
50821;SDS011;36794;51.212;6.980;2023-04-06T12:20:12;23.07;;;12.60;;
50821;SDS011;36794;51.212;6.980;2023-04-06T12:22:39;23.77;;;12.83;;
50821;SDS011;36794;51.212;6.980;2023-04-06T12:25:05;22.47;;;11.97;;
50821;SDS011;36794;51.212;6.980;2023-04-06T12:27:31;19.70;;;11.40;;
50821;SDS011;36794;51.212;6.980;2023-04-06T12:29:57;21.37;;;11.97;;
50821;SDS011;36794;51.212;6.980;2023-04-06T12:32:23;24.50;;;11.93;;
50821;SDS011;36794;51.212;6.980;2023-04-06T12:34:53;25.90;;;12.57;;
50821;SDS011;36794;51.212;6.980;2023-04-06T12:37:19;20.30;;;11.53;;
50821;SDS011;36794;51.212;6.980;2023-04-06T12:39:46;19.57;;;11.67;;
50821;SDS011;36794;51.212;6.980;2023-04-06T12:42:12;20.83;;;12.43;;
50821;SDS011;36794;51.212;6.980;2023-04-06T12:44:38;20.20;;;11.47;;
50821;SDS011;36794;51.212;6.980;2023-04-06T12:47:04;19.87;;;11.17;;
50821;SDS011;36794;51.212;6.980;2023-04-06T12:49:32;19.70;;;11.23;;
50821;SDS011;36794;51.212;6.980;2023-04-06T12:51:58;20.93;;;12.23;;
50821;SDS011;36794;51.212;6.980;2023-04-06T12:54:24;20.47;;;11.77;;
50821;SDS011;36794;51.212;6.980;2023-04-06T12:56:51;24.47;;;11.80;;
50821;SDS011;36794;51.212;6.980;2023-04-06T12:59:17;19.00;;;11.83;;
50821;SDS011;36794;51.212;6.980;2023-04-06T13:01:43;19.90;;;11.27;;
50821;SDS011;36794;51.212;6.980;2023-04-06T13:04:09;20.60;;;11.33;;
50821;SDS011;36794;51.212;6.980;2023-04-06T13:06:35;21.50;;;11.70;;
50821;SDS011;36794;51.212;6.980;2023-04-06T13:09:01;17.80;;;11.20;;
50821;SDS011;36794;51.212;6.980;2023-04-06T13:11:29;22.70;;;10.53;;
50821;SDS011;36794;51.212;6.980;2023-04-06T13:13:55;19.03;;;10.63;;
50821;SDS011;36794;51.212;6.980;2023-04-06T13:16:21;19.60;;;11.03;;
50821;SDS011;36794;51.212;6.980;2023-04-06T13:18:47;17.53;;;9.70;;
50821;SDS011;36794;51.212;6.980;2023-04-06T13:21:14;20.43;;;10.40;;
50821;SDS011;36794;51.212;6.980;2023-04-06T13:23:44;18.97;;;9.23;;
50821;SDS011;36794;51.212;6.980;2023-04-06T13:26:10;15.93;;;9.40;;
50821;SDS011;36794;51.212;6.980;2023-04-06T13:28:38;17.47;;;9.43;;
50821;SDS011;36794;51.212;6.980;2023-04-06T13:31:04;15.00;;;9.53;;
50821;SDS011;36794;51.212;6.980;2023-04-06T13:33:31;17.43;;;9.30;;
50821;SDS011;36794;51.212;6.980;2023-04-06T13:35:58;15.90;;;8.83;;
50821;SDS011;36794;51.212;6.980;2023-04-06T13:38:24;16.63;;;8.37;;
50821;SDS011;36794;51.212;6.980;2023-04-06T13:40:50;13.93;;;8.23;;
50821;SDS011;36794;51.212;6.980;2023-04-06T13:43:16;15.10;;;8.97;;
50821;SDS011;36794;51.212;6.980;2023-04-06T13:45:51;15.90;;;7.47;;
50821;SDS011;36794;51.212;6.980;2023-04-06T13:48:19;16.07;;;7.97;;
50821;SDS011;36794;51.212;6.980;2023-04-06T13:50:45;14.50;;;7.67;;
50821;SDS011;36794;51.212;6.980;2023-04-06T13:53:11;11.03;;;7.20;;
50821;SDS011;36794;51.212;6.980;2023-04-06T13:55:37;16.97;;;7.03;;
50821;SDS011;36794;51.212;6.980;2023-04-06T13:58:03;11.33;;;7.43;;
50821;SDS011;36794;51.212;6.980;2023-04-06T14:00:29;10.10;;;6.77;;
50821;SDS011;36794;51.212;6.980;2023-04-06T14:02:55;8.83;;;6.10;;
50821;SDS011;36794;51.212;6.980;2023-04-06T14:05:21;11.37;;;6.67;;
50821;SDS011;36794;51.212;6.980;2023-04-06T14:07:48;11.63;;;6.60;;
50821;SDS011;36794;51.212;6.980;2023-04-06T14:10:14;9.57;;;5.83;;
50821;SDS011;36794;51.212;6.980;2023-04-06T14:12:41;10.17;;;6.47;;
50821;SDS011;36794;51.212;6.980;2023-04-06T14:15:09;10.50;;;6.30;;
50821;SDS011;36794;51.212;6.980;2023-04-06T14:17:35;12.53;;;6.20;;
50821;SDS011;36794;51.212;6.980;2023-04-06T14:20:02;9.93;;;6.40;;
50821;SDS011;36794;51.212;6.980;2023-04-06T14:22:28;9.40;;;5.93;;
50821;SDS011;36794;51.212;6.980;2023-04-06T14:24:53;10.27;;;6.37;;
50821;SDS011;36794;51.212;6.980;2023-04-06T14:27:20;10.13;;;6.30;;
50821;SDS011;36794;51.212;6.980;2023-04-06T14:29:47;9.70;;;5.90;;
50821;SDS011;36794;51.212;6.980;2023-04-06T14:32:12;13.23;;;5.90;;
50821;SDS011;36794;51.212;6.980;2023-04-06T14:34:38;13.70;;;6.37;;